Time;durP1;ratioP1;P1;durP2;ratioP2;P2;SDS_P1;SDS_P2;PMS_P1;PMS_P2;Temp;Humidity;BMP_temperature;BMP_pressure;BME280_temperature;BME280_humidity;BME280_pressure;Samples;Min_cycle;Max_cycle;Signal;HPM_P1;HPM_P2
2022/06/21 00:00:21;;;;;;;4.65;3.17;;;12.50;99.90;;;;;;5028994;28;20022;-71
2022/06/21 00:02:48;;;;;;;5.38;2.92;;;12.50;99.90;;;;;;5030011;28;20028;-71
2022/06/21 00:05:20;;;;;;;5.95;3.92;;;12.60;99.90;;;;;;5029432;28;20026;-71
2022/06/21 00:07:45;;;;;;;5.45;3.22;;;12.50;99.90;;;;;;5030049;28;20041;-72
2022/06/21 00:10:15;;;;;;;5.28;3.00;;;12.60;99.90;;;;;;5029633;28;20032;-71
2022/06/21 00:12:41;;;;;;;8.98;2.95;;;12.40;99.90;;;;;;5029224;28;20052;-71
2022/06/21 00:15:07;;;;;;;6.82;3.25;;;;;;;;;;5028414;28;20033;-71
2022/06/21 00:17:33;;;;;;;4.88;3.17;;;12.30;99.90;;;;;;5029537;28;20030;-71
2022/06/21 00:19:59;;;;;;;4.25;3.03;;;;;;;;;;5029505;28;20084;-72
2022/06/21 00:22:25;;;;;;;11.88;3.78;;;;;;;;;;5029543;28;20079;-71
2022/06/21 00:24:51;;;;;;;5.55;2.95;;;;;;;;;;5029554;28;20136;-71
2022/06/21 00:27:20;;;;;;;6.10;2.70;;;12.50;99.90;;;;;;5029120;28;20048;-71
2022/06/21 00:29:46;;;;;;;9.25;3.38;;;12.40;99.90;;;;;;5029261;28;20025;-71
2022/06/21 00:32:16;;;;;;;6.43;2.70;;;12.40;99.90;;;;;;5029418;28;20063;-71
2022/06/21 00:34:43;;;;;;;7.10;3.20;;;12.30;99.90;;;;;;5029398;28;20108;-72
2022/06/21 00:37:17;;;;;;;4.53;2.95;;;12.20;99.90;;;;;;5029385;28;20032;-71
2022/06/21 00:39:43;;;;;;;5.55;2.75;;;12.30;99.90;;;;;;5029622;28;20026;-71
2022/06/21 00:42:18;;;;;;;8.75;3.53;;;12.20;99.90;;;;;;5028897;28;20079;-71
2022/06/21 00:44:59;;;;;;;6.50;3.67;;;12.10;99.90;;;;;;5029366;28;20091;-71
2022/06/21 00:47:43;;;;;;;6.38;3.78;;;12.10;99.90;;;;;;5029550;28;20450;-71
2022/06/21 00:50:32;;;;;;;5.78;3.88;;;11.90;99.90;;;;;;5029262;28;20021;-71
2022/06/21 00:53:19;;;;;;;5.32;3.33;;;11.90;99.90;;;;;;5029654;28;20478;-71
2022/06/21 00:55:52;;;;;;;7.88;3.33;;;11.80;99.90;;;;;;5029554;28;20045;-71
2022/06/21 00:58:20;;;;;;;6.90;3.30;;;11.90;99.90;;;;;;5032131;28;20017;-71
2022/06/21 01:00:52;;;;;;;6.88;2.92;;;11.80;99.90;;;;;;5033864;28;20359;-71
2022/06/21 01:03:22;;;;;;;5.32;2.53;;;11.80;99.90;;;;;;5033336;28;20489;-71
2022/06/21 01:05:49;;;;;;;5.15;2.83;;;11.70;99.90;;;;;;5033188;28;20026;-71
2022/06/21 01:08:24;;;;;;;6.07;3.55;;;11.70;99.90;;;;;;5032700;28;20478;-71
2022/06/21 01:10:54;;;;;;;6.47;3.80;;;11.40;99.90;;;;;;5032726;28;20154;-72
2022/06/21 01:13:23;;;;;;;8.98;3.97;;;11.60;99.90;;;;;;5032320;28;20072;-71
2022/06/21 01:15:50;;;;;;;6.55;2.65;;;11.40;99.90;;;;;;5032487;28;20108;-71
2022/06/21 01:18:18;;;;;;;5.25;3.25;;;11.90;99.90;;;;;;5031888;28;20482;-72
2022/06/21 01:20:47;;;;;;;3.90;3.08;;;11.50;99.90;;;;;;5032468;28;20030;-71
2022/06/21 01:23:41;;;;;;;4.88;3.33;;;11.60;99.90;;;;;;5032007;28;20069;-72
2022/06/21 01:26:35;;;;;;;7.07;3.00;;;11.40;99.90;;;;;;5032418;28;20033;-71
2022/06/21 01:29:02;;;;;;;4.35;3.30;;;11.70;99.90;;;;;;5032345;28;20029;-71
2022/06/21 01:31:30;;;;;;;5.07;2.67;;;11.40;99.90;;;;;;5032329;28;20103;-72
2022/06/21 01:33:56;;;;;;;4.57;2.60;;;11.30;99.90;;;;;;5032776;28;20075;-72
2022/06/21 01:36:25;;;;;;;7.13;3.13;;;11.30;99.90;;;;;;5031982;28;20413;-71
2022/06/21 01:38:56;;;;;;;5.03;3.42;;;11.40;99.90;;;;;;5032468;28;20080;-72
2022/06/21 01:41:27;;;;;;;5.05;3.53;;;11.30;99.90;;;;;;5021359;28;20325;-72
2022/06/21 01:43:57;;;;;;;6.90;3.53;;;11.20;99.90;;;;;;5031239;28;20041;-72
2022/06/21 01:46:27;;;;;;;3.22;2.92;;;11.20;99.90;;;;;;5032259;28;20022;-72
2022/06/21 01:48:57;;;;;;;5.60;4.05;;;11.20;99.90;;;;;;5032547;28;20077;-71
2022/06/21 01:51:40;;;;;;;5.75;3.35;;;11.30;99.90;;;;;;5030550;28;20021;-71
2022/06/21 01:54:08;;;;;;;5.25;2.90;;;11.10;99.90;;;;;;5032161;28;20029;-71
2022/06/21 01:56:38;;;;;;;6.63;3.08;;;11.10;99.90;;;;;;5031557;28;20120;-71
2022/06/21 01:59:14;;;;;;;4.90;3.08;;;11.10;99.90;;;;;;5031796;28;20047;-72
2022/06/21 02:01:43;;;;;;;7.38;3.38;;;11.20;99.90;;;;;;5031515;28;20026;-71
2022/06/21 02:04:09;;;;;;;6.18;3.58;;;11.10;99.90;;;;;;5031598;28;20034;-71
2022/06/21 02:06:39;;;;;;;7.18;3.63;;;11.10;99.90;;;;;;5030936;28;20033;-71
2022/06/21 02:09:12;;;;;;;6.93;2.92;;;11.10;99.90;;;;;;5031492;28;20076;-72
2022/06/21 02:11:45;;;;;;;5.28;3.10;;;11.00;99.90;;;;;;5031427;28;20037;-71
2022/06/21 02:14:30;;;;;;;4.45;3.05;;;11.10;99.90;;;;;;5031518;28;20076;-71
2022/06/21 02:17:18;;;;;;;4.55;3.83;;;11.50;99.90;;;;;;5031945;28;20025;-71
2022/06/21 02:20:07;;;;;;;5.72;3.50;;;11.00;99.90;;;;;;5031662;28;20032;-71
2022/06/21 02:22:33;;;;;;;7.95;3.08;;;;;;;;;;5031340;28;20049;-71
2022/06/21 02:25:00;;;;;;;11.13;3.45;;;10.90;99.90;;;;;;5031021;28;20033;-71
2022/06/21 02:27:32;;;;;;;5.32;3.15;;;10.90;99.90;;;;;;5031222;28;20029;-71
2022/06/21 02:30:00;;;;;;;3.10;2.78;;;10.90;99.90;;;;;;5031811;28;20096;-71
2022/06/21 02:32:35;;;;;;;5.72;3.50;;;10.90;99.90;;;;;;5031091;28;20041;-71
2022/06/21 02:35:13;;;;;;;4.25;3.03;;;11.00;99.90;;;;;;5031395;28;20053;-72
2022/06/21 02:37:39;;;;;;;5.35;3.08;;;10.90;99.90;;;;;;5031411;28;20045;-71
2022/06/21 02:40:08;;;;;;;6.47;3.85;;;10.80;99.90;;;;;;5030846;28;20033;-71
2022/06/21 02:42:38;;;;;;;5.82;4.18;;;10.80;99.90;;;;;;5028194;28;20041;-71
2022/06/21 02:45:52;;;;;;;6.47;3.72;;;10.80;99.90;;;;;;5031017;28;20104;-72
2022/06/21 02:48:27;;;;;;;6.75;3.53;;;10.70;99.90;;;;;;5012304;28;20041;-71
2022/06/21 02:51:08;;;;;;;6.05;3.67;;;10.70;99.90;;;;;;5031457;28;20429;-71
2022/06/21 02:53:39;;;;;;;5.93;4.50;;;10.70;99.90;;;;;;5017277;28;20478;-71
2022/06/21 02:56:14;;;;;;;4.95;3.85;;;10.80;99.90;;;;;;5029570;28;20032;-72
2022/06/21 02:58:45;;;;;;;6.07;4.00;;;11.00;99.90;;;;;;5030442;28;20029;-72
2022/06/21 03:01:42;;;;;;;6.20;3.28;;;10.80;99.90;;;;;;5030252;28;20041;-71
2022/06/21 03:04:18;;;;;;;7.15;4.95;;;10.90;99.90;;;;;;5022475;28;20041;-71
2022/06/21 03:06:44;;;;;;;8.30;4.47;;;10.80;99.90;;;;;;5030806;28;20036;-71
2022/06/21 03:09:15;;;;;;;9.85;3.90;;;10.70;99.90;;;;;;5030002;28;20025;-71
2022/06/21 03:11:43;;;;;;;9.20;4.80;;;10.90;99.90;;;;;;5030754;28;20498;-72
2022/06/21 03:14:14;;;;;;;6.57;4.25;;;10.80;99.90;;;;;;5028925;28;20021;-71
2022/06/21 03:16:42;;;;;;;10.45;5.35;;;10.70;99.90;;;;;;5030769;28;20025;-72
2022/06/21 03:19:19;;;;;;;6.03;4.15;;;10.90;99.90;;;;;;5029663;28;20025;-72
2022/06/21 03:21:47;;;;;;;7.57;3.88;;;;;;;;;;5030670;28;20026;-71
2022/06/21 03:24:17;;;;;;;4.18;3.75;;;10.50;99.90;;;;;;5030328;28;20044;-72
2022/06/21 03:26:48;;;;;;;7.15;4.85;;;10.80;99.90;;;;;;5031369;28;20017;-72
2022/06/21 03:29:14;;;;;;;7.82;5.13;;;10.80;99.90;;;;;;5030375;28;20079;-71
2022/06/21 03:31:44;;;;;;;6.68;4.30;;;10.80;99.90;;;;;;5030379;28;20037;-71
2022/06/21 03:34:15;;;;;;;8.10;4.50;;;10.70;99.90;;;;;;5028737;28;20029;-71
2022/06/21 03:36:41;;;;;;;9.70;3.58;;;10.20;99.90;;;;;;5030817;28;20113;-71
2022/06/21 03:39:16;;;;;;;5.75;4.13;;;10.80;99.90;;;;;;5029970;28;20018;-72
2022/06/21 03:41:43;;;;;;;11.98;4.80;;;10.80;99.90;;;;;;5030222;28;20070;-72
2022/06/21 03:44:29;;;;;;;8.40;4.03;;;10.40;99.90;;;;;;5029802;28;20044;-71
2022/06/21 03:47:02;;;;;;;7.18;4.20;;;10.80;99.90;;;;;;5030278;28;20022;-71
2022/06/21 03:50:10;;;;;;;4.50;3.88;;;10.80;99.90;;;;;;5029371;28;20025;-72
2022/06/21 03:52:41;;;;;;;7.43;3.22;;;10.70;99.90;;;;;;5021112;28;20053;-72
2022/06/21 03:55:48;;;;;;;7.45;3.90;;;10.70;99.90;;;;;;5029580;28;20014;-72
2022/06/21 03:58:28;;;;;;;6.40;3.35;;;10.80;99.90;;;;;;5008032;28;20056;-72
2022/06/21 04:01:12;;;;;;;8.05;3.45;;;10.70;99.90;;;;;;5023845;28;20053;-72
2022/06/21 04:03:53;;;;;;;4.82;3.25;;;10.80;99.90;;;;;;5029771;28;20387;-72
2022/06/21 04:06:21;;;;;;;5.50;3.65;;;10.70;99.90;;;;;;5029056;28;20470;-72
2022/06/21 04:09:00;;;;;;;6.63;3.65;;;10.80;99.90;;;;;;5029813;28;20022;-73
2022/06/21 04:11:33;;;;;;;6.03;3.60;;;10.80;99.90;;;;;;5029582;28;20071;-73
2022/06/21 04:14:36;;;;;;;6.33;3.43;;;10.80;99.90;;;;;;5029663;28;20032;-73
2022/06/21 04:17:44;;;;;;;11.18;3.97;;;10.80;99.90;;;;;;5029480;28;20311;-73
2022/06/21 04:20:32;;;;;;;7.68;3.90;;;10.80;99.90;;;;;;5021095;28;20064;-73
2022/06/21 04:23:00;;;;;;;6.03;3.50;;;10.90;99.90;;;;;;5029623;28;20046;-73
2022/06/21 04:25:29;;;;;;;3.97;3.17;;;10.80;99.90;;;;;;5029624;28;20026;-73
2022/06/21 04:27:54;;;;;;;8.25;4.03;;;10.80;99.90;;;;;;5029744;28;20548;-73
2022/06/21 04:30:41;;;;;;;7.00;3.97;;;10.90;99.90;;;;;;5028871;28;20022;-73
2022/06/21 04:33:11;;;;;;;5.22;3.60;;;10.90;99.90;;;;;;5022907;28;20040;-73
2022/06/21 04:35:43;;;;;;;11.18;3.88;;;11.00;99.90;;;;;;5032972;28;20027;-73
2022/06/21 04:38:27;;;;;;;6.15;4.03;;;11.00;99.90;;;;;;5033481;28;20494;-73
2022/06/21 04:40:59;;;;;;;7.13;3.83;;;11.00;99.90;;;;;;5032358;28;20026;-73
2022/06/21 04:43:52;;;;;;;5.90;4.45;;;11.00;99.90;;;;;;5033746;28;20025;-73
2022/06/21 04:46:26;;;;;;;8.15;4.63;;;11.10;99.90;;;;;;5033679;28;20398;-73
2022/06/21 04:49:16;;;;;;;5.10;4.40;;;10.50;99.90;;;;;;5033648;28;20021;-73
2022/06/21 04:51:58;;;;;;;9.98;5.15;;;11.20;99.90;;;;;;5032829;28;20037;-73
2022/06/21 04:54:29;;;;;;;8.48;5.60;;;11.20;99.90;;;;;;5033276;28;20025;-73
2022/06/21 04:57:18;;;;;;;8.25;5.60;;;11.40;99.90;;;;;;5033486;28;20112;-73
2022/06/21 04:59:54;;;;;;;12.60;5.32;;;11.50;99.90;;;;;;5033029;28;20020;-73
2022/06/21 05:02:23;;;;;;;12.05;6.28;;;11.60;99.90;;;;;;5031523;28;20482;-73
2022/06/21 05:04:53;;;;;;;9.77;5.72;;;11.90;99.90;;;;;;5032641;28;20105;-74
2022/06/21 05:07:25;;;;;;;10.10;6.07;;;12.20;99.90;;;;;;5032630;28;20425;-73
2022/06/21 05:09:52;;;;;;;16.25;6.47;;;12.10;99.90;;;;;;5033269;28;20060;-73
2022/06/21 05:12:31;;;;;;;18.02;5.30;;;12.50;99.90;;;;;;5055474;23;20553;-72
2022/06/21 05:15:00;;;;;;;9.27;4.93;;;12.50;99.90;;;;;;5010755;28;20434;-73
2022/06/21 05:17:27;;;;;;;8.75;4.90;;;12.70;99.90;;;;;;5011920;28;20036;-73
2022/06/21 05:20:01;;;;;;;12.73;5.07;;;12.70;99.90;;;;;;5011939;28;20083;-73
2022/06/21 05:22:49;;;;;;;16.27;4.75;;;12.90;99.90;;;;;;5011922;28;20132;-73
2022/06/21 05:25:23;;;;;;;13.35;5.00;;;13.20;99.90;;;;;;5011664;28;20026;-73
2022/06/21 05:27:59;;;;;;;8.65;4.30;;;13.20;99.90;;;;;;5011941;28;20072;-74
2022/06/21 05:30:39;;;;;;;12.68;4.22;;;13.40;99.90;;;;;;5011071;28;20033;-73
2022/06/21 05:33:12;;;;;;;5.75;3.10;;;13.30;99.90;;;;;;5011280;28;20037;-74
2022/06/21 05:35:38;;;;;;;10.23;3.20;;;13.40;99.90;;;;;;5011832;28;20026;-73
2022/06/21 05:38:11;;;;;;;8.18;3.53;;;13.60;99.90;;;;;;5011737;28;20057;-73
2022/06/21 05:40:54;;;;;;;5.88;2.58;;;13.60;99.90;;;;;;5011743;28;20022;-73
2022/06/21 05:43:34;;;;;;;7.68;2.55;;;13.80;99.90;;;;;;5010869;28;20112;-73
2022/06/21 05:46:03;;;;;;;5.35;2.92;;;13.70;99.90;;;;;;5009102;28;20026;-72
2022/06/21 05:48:34;;;;;;;6.28;2.50;;;13.80;99.90;;;;;;5010673;28;20034;-74
2022/06/21 05:51:03;;;;;;;3.67;2.03;;;14.10;99.90;;;;;;5004408;28;20026;-73
2022/06/21 05:53:39;;;;;;;8.80;2.42;;;14.10;99.90;;;;;;5010937;28;20167;-73
2022/06/21 05:56:10;;;;;;;6.65;2.28;;;14.20;99.90;;;;;;5010974;28;20375;-73
2022/06/21 05:58:41;;;;;;;4.78;2.15;;;14.30;99.90;;;;;;5010835;28;20022;-73
2022/06/21 06:01:13;;;;;;;6.43;1.88;;;14.20;99.90;;;;;;5009717;28;20091;-73
2022/06/21 06:03:52;;;;;;;6.22;2.20;;;14.30;99.90;;;;;;5010474;28;20161;-73
2022/06/21 06:06:20;;;;;;;4.65;2.47;;;14.30;99.90;;;;;;5016681;28;20381;-74
2022/06/21 06:09:01;;;;;;;5.20;2.22;;;14.40;99.90;;;;;;5000139;28;20023;-74
2022/06/21 06:12:03;;;;;;;7.93;2.03;;;14.10;99.90;;;;;;5001070;28;20033;-74
2022/06/21 06:14:34;;;;;;;7.88;2.17;;;14.20;99.90;;;;;;5010313;28;20509;-74
2022/06/21 06:17:05;;;;;;;4.13;1.90;;;14.50;99.90;;;;;;5010509;28;20018;-74
2022/06/21 06:19:40;;;;;;;11.18;2.33;;;14.80;99.90;;;;;;5010675;28;20026;-73
2022/06/21 06:22:06;;;;;;;8.57;3.22;;;14.80;99.90;;;;;;5010904;28;20026;-73
2022/06/21 06:24:47;;;;;;;4.57;1.80;;;14.90;99.90;;;;;;5010974;28;20026;-73
2022/06/21 06:27:52;;;;;;;6.35;1.80;;;14.60;99.90;;;;;;5010521;28;20029;-73
2022/06/21 06:30:24;;;;;;;5.40;1.75;;;14.90;99.90;;;;;;5002658;28;20096;-74
2022/06/21 06:33:05;;;;;;;6.00;1.60;;;15.00;99.90;;;;;;5010184;28;20037;-74
2022/06/21 06:35:31;;;;;;;8.60;1.65;;;15.10;99.90;;;;;;5010382;28;20065;-74
2022/06/21 06:37:57;;;;;;;7.45;1.95;;;15.30;99.90;;;;;;5010822;28;20057;-74
2022/06/21 06:40:32;;;;;;;6.88;1.85;;;15.30;99.90;;;;;;5010117;28;20051;-73
2022/06/21 06:43:02;;;;;;;4.45;1.85;;;15.40;99.90;;;;;;5010772;28;20036;-74
2022/06/21 06:45:33;;;;;;;6.90;1.90;;;15.40;99.90;;;;;;5009969;28;20022;-74
2022/06/21 06:48:03;;;;;;;6.35;1.60;;;15.50;99.90;;;;;;5010335;28;20032;-74
2022/06/21 06:50:35;;;;;;;6.88;2.72;;;15.30;99.90;;;;;;5010395;28;20025;-74
2022/06/21 06:53:09;;;;;;;3.80;2.10;;;15.40;99.90;;;;;;5009955;28;20494;-74
2022/06/21 06:55:47;;;;;;;4.32;2.33;;;15.70;99.90;;;;;;5000934;28;20452;-74
2022/06/21 06:58:31;;;;;;;6.03;2.38;;;15.70;99.90;;;;;;5004862;28;20022;-74
2022/06/21 07:01:09;;;;;;;8.40;2.38;;;15.70;99.90;;;;;;5008973;28;20103;-74
2022/06/21 07:03:41;;;;;;;6.40;2.40;;;16.00;99.90;;;;;;5009451;28;20104;-73
2022/06/21 07:06:16;;;;;;;3.25;1.85;;;16.00;99.90;;;;;;5004672;28;21211;-73
2022/06/21 07:08:51;;;;;;;7.50;2.65;;;16.40;99.90;;;;;;5010816;28;20029;-73
2022/06/21 07:11:30;;;;;;;11.18;2.25;;;16.00;99.90;;;;;;5008975;28;20034;-73
2022/06/21 07:13:59;;;;;;;7.47;2.80;;;15.90;99.90;;;;;;5009705;28;20050;-73
2022/06/21 07:16:25;;;;;;;9.55;2.20;;;16.20;99.90;;;;;;5009174;28;20083;-73
2022/06/21 07:18:54;;;;;;;6.75;2.28;;;16.10;99.90;;;;;;5009561;28;20526;-72
2022/06/21 07:21:22;;;;;;;9.32;3.25;;;16.30;99.90;;;;;;5009241;28;20399;-73
2022/06/21 07:23:49;;;;;;;8.55;1.90;;;16.30;99.90;;;;;;5007997;28;20403;-73
2022/06/21 07:26:21;;;;;;;6.97;2.60;;;16.30;99.90;;;;;;5001783;28;20417;-73
2022/06/21 07:28:56;;;;;;;4.07;1.52;;;16.40;99.60;;;;;;5009656;28;20084;-73
2022/06/21 07:31:42;;;;;;;4.25;2.22;;;16.30;99.20;;;;;;5008911;28;20022;-74
2022/06/21 07:34:17;;;;;;;6.90;2.25;;;16.10;99.90;;;;;;5008230;28;20073;-74
2022/06/21 07:36:51;;;;;;;8.23;1.45;;;16.60;98.90;;;;;;5009139;28;20418;-73
2022/06/21 07:39:25;;;;;;;10.10;2.05;;;16.60;98.90;;;;;;5008634;28;20092;-73
2022/06/21 07:42:00;;;;;;;6.03;2.58;;;16.50;99.90;;;;;;5009077;28;20056;-73
2022/06/21 07:44:38;;;;;;;6.30;2.83;;;16.60;98.60;;;;;;5008676;28;20030;-74
2022/06/21 07:47:11;;;;;;;4.22;2.35;;;16.70;98.30;;;;;;5008176;28;20021;-73
2022/06/21 07:49:46;;;;;;;5.65;1.65;;;16.60;99.90;;;;;;5009162;28;20375;-74
2022/06/21 07:52:31;;;;;;;3.10;1.65;;;17.00;99.90;;;;;;5008283;28;20030;-73
2022/06/21 07:55:00;;;;;;;4.35;1.38;;;17.10;97.70;;;;;;5007381;28;20018;-74
2022/06/21 07:57:40;;;;;;;2.63;1.25;;;17.10;97.80;;;;;;5008888;28;20026;-74
2022/06/21 08:00:18;;;;;;;4.53;1.35;;;17.50;97.70;;;;;;5008107;28;20471;-74
2022/06/21 08:08:32;;;;;;;3.20;1.23;;;17.50;97.40;;;;;;5009131;28;20126;-74
2022/06/21 08:11:00;;;;;;;;;;;17.60;96.80;;;;;;4996031;28;20030;-74
2022/06/21 08:13:27;;;;;;;3.42;1.23;;;17.40;97.10;;;;;;5007699;28;19924;-74
2022/06/21 08:16:03;;;;;;;4.15;1.00;;;18.90;96.90;;;;;;5008173;28;20018;-75
2022/06/21 08:18:59;;;;;;;3.63;0.98;;;17.70;96.80;;;;;;5008658;28;20026;-75
2022/06/21 08:21:39;;;;;;;4.70;1.13;;;17.80;96.60;;;;;;5007211;28;20042;-74
2022/06/21 08:24:08;;;;;;;6.13;1.15;;;17.80;95.60;;;;;;5004734;28;20033;-74
2022/06/21 08:26:49;;;;;;;6.00;1.10;;;18.00;96.00;;;;;;5006670;28;20768;-73
2022/06/21 08:29:28;;;;;;;1.42;0.80;;;18.00;95.30;;;;;;5008038;28;20109;-74
2022/06/21 08:32:25;;;;;;;3.78;0.98;;;18.00;95.90;;;;;;5014298;28;20030;-74
2022/06/21 08:34:56;;;;;;;4.90;1.48;;;18.10;95.10;;;;;;4979459;28;20104;-73
2022/06/21 08:37:36;;;;;;;3.42;1.15;;;18.10;95.70;;;;;;5002095;28;20029;-74
2022/06/21 08:40:31;;;;;;;4.10;0.80;;;18.30;94.80;;;;;;5008438;28;20022;-74
2022/06/21 08:43:14;;;;;;;2.67;0.90;;;18.60;95.70;;;;;;5003665;28;20101;-74
2022/06/21 08:45:46;;;;;;;3.33;1.05;;;18.40;94.50;;;;;;5009401;28;20080;-74
2022/06/21 08:48:30;;;;;;;4.63;0.80;;;18.50;95.10;;;;;;5008257;28;20025;-74
2022/06/21 08:51:09;;;;;;;4.45;1.00;;;18.60;94.90;;;;;;5008574;28;20371;-75
2022/06/21 08:53:44;;;;;;;4.13;0.80;;;18.60;93.90;;;;;;5012563;28;20505;-74
2022/06/21 08:56:30;;;;;;;4.60;1.05;;;18.50;93.80;;;;;;5017297;28;20046;-73
2022/06/21 08:59:07;;;;;;;2.22;0.60;;;18.70;93.70;;;;;;5013861;28;20466;-74
2022/06/21 09:01:44;;;;;;;3.63;0.93;;;18.80;93.90;;;;;;5007141;28;20029;-74
2022/06/21 09:04:18;;;;;;;3.85;0.88;;;16.50;92.70;;;;;;5007866;28;20014;-74
2022/06/21 09:07:16;;;;;;;2.50;0.85;;;18.80;93.50;;;;;;5008413;28;20670;-74
2022/06/21 09:10:05;;;;;;;3.70;0.95;;;21.40;93.80;;;;;;5008290;28;20037;-74
2022/06/21 09:12:59;;;;;;;3.22;0.70;;;18.90;93.00;;;;;;5007182;28;20076;-74
2022/06/21 09:15:45;;;;;;;;;;;18.90;93.10;;;;;;5006483;28;20041;-74
2022/06/21 09:18:35;;;;;;;3.78;0.90;;;19.00;93.80;;;;;;4997196;28;19992;-74
2022/06/21 09:21:22;;;;;;;1.98;0.60;;;18.90;92.60;;;;;;5018313;28;20113;-74
2022/06/21 09:23:54;;;;;;;2.08;0.70;;;19.00;93.20;;;;;;5011456;28;20447;-74
2022/06/21 09:26:31;;;;;;;2.00;0.60;;;19.20;93.10;;;;;;5010782;28;20022;-74
2022/06/21 09:29:19;;;;;;;1.80;0.68;;;19.20;93.10;;;;;;5011711;28;20033;-74
2022/06/21 09:32:02;;;;;;;1.38;0.70;;;19.20;92.00;;;;;;4982458;28;20137;-74
2022/06/21 09:35:00;;;;;;;3.13;0.50;;;19.30;91.70;;;;;;5009190;28;20093;-74
2022/06/21 09:37:47;;;;;;;3.00;0.90;;;19.40;91.30;;;;;;5019257;28;20388;-74
2022/06/21 09:40:16;;;;;;;6.28;0.52;;;19.40;91.10;;;;;;5010504;28;20061;-74
2022/06/21 09:42:54;;;;;;;4.07;0.73;;;19.50;91.00;;;;;;5007074;28;20068;-74
2022/06/21 09:45:49;;;;;;;5.60;0.77;;;19.30;90.90;;;;;;5011015;28;20022;-74
2022/06/21 09:48:36;;;;;;;2.70;0.80;;;19.20;90.00;;;;;;5007956;28;20048;-74
2022/06/21 09:51:43;;;;;;;2.80;0.90;;;19.20;89.80;;;;;;5011103;28;20089;-75
2022/06/21 09:54:15;;;;;;;1.92;0.45;;;19.30;89.20;;;;;;5010395;28;20132;-75
2022/06/21 09:57:18;;;;;;;1.05;0.47;;;19.30;88.00;;;;;;5011083;28;20029;-74
2022/06/21 10:00:13;;;;;;;1.95;0.50;;;19.40;88.80;;;;;;5007025;28;20018;-75
2022/06/21 10:02:55;;;;;;;3.47;0.63;;;19.40;88.00;;;;;;5011092;28;20426;-74
2022/06/21 10:05:32;;;;;;;2.63;0.70;;;19.60;87.70;;;;;;5010831;28;20022;-74
2022/06/21 10:08:13;;;;;;;4.75;0.77;;;19.70;89.10;;;;;;5026539;28;20026;-75
2022/06/21 10:10:38;;;;;;;2.45;0.90;;;19.90;85.90;;;;;;5008113;28;20052;-75
2022/06/21 10:13:34;;;;;;;3.03;0.43;;;20.20;86.10;;;;;;5010570;28;20084;-74
2022/06/21 10:16:34;;;;;;;3.10;0.85;;;20.20;84.20;;;;;;5010675;28;20101;-74
2022/06/21 10:19:32;;;;;;;2.55;0.57;;;20.30;83.70;;;;;;5010523;28;20022;-74
2022/06/21 10:22:23;;;;;;;3.78;0.77;;;20.50;85.10;;;;;;5011197;28;20030;-74
2022/06/21 10:25:03;;;;;;;3.33;0.90;;;20.70;84.90;;;;;;5010316;28;20014;-74
2022/06/21 10:27:36;;;;;;;2.38;0.70;;;20.90;82.30;;;;;;5010445;28;20383;-74
2022/06/21 10:30:17;;;;;;;1.90;0.60;;;21.90;83.50;;;;;;5010663;28;20030;-74
2022/06/21 10:33:01;;;;;;;2.67;0.88;;;21.30;83.90;;;;;;5010606;28;20350;-74
2022/06/21 10:35:51;;;;;;;3.25;0.70;;;21.20;83.40;;;;;;5010697;28;20050;-74
2022/06/21 10:38:59;;;;;;;3.28;0.82;;;21.30;81.20;;;;;;5009652;28;20439;-74
2022/06/21 10:45:07;;;;;;;3.53;0.88;;;21.30;80.50;;;;;;4969411;28;20069;-74
2022/06/21 10:47:52;;;;;;;3.97;1.05;;;21.20;79.90;;;;;;4969378;28;20426;-74
2022/06/21 10:50:36;;;;;;;4.07;1.00;;;21.10;79.00;;;;;;4968726;28;20055;-74
2022/06/21 10:53:09;;;;;;;;;;;21.10;82.30;;;;;;4968777;28;20113;-74
2022/06/21 10:57:09;;;;;;;4.22;0.70;;;21.20;82.60;;;;;;4969156;28;19910;-74
2022/06/21 10:58:56;;;;;;;3.03;0.50;;;21.80;81.40;;;;;;4968617;28;20070;-74
2022/06/21 11:01:32;;;;;;;1.92;0.70;;;22.30;81.00;;;;;;4968641;28;20034;-74
2022/06/21 11:04:08;;;;;;;2.28;0.50;;;21.20;79.30;;;;;;4968955;28;20503;-74
2022/06/21 11:07:07;;;;;;;2.50;0.47;;;21.40;77.80;;;;;;4968539;28;20030;-75
2022/06/21 11:09:42;;;;;;;1.80;0.50;;;21.30;77.30;;;;;;4968504;28;20042;-74
2022/06/21 11:15:24;;;;;;;4.53;1.15;;;21.30;75.60;;;;;;4985103;28;20168;-74
2022/06/21 11:18:07;;;;;;;1.83;0.70;;;21.30;75.20;;;;;;5010190;28;20057;-74
2022/06/21 11:21:11;;;;;;;1.25;0.32;;;21.30;75.40;;;;;;5009869;28;20021;-74
2022/06/21 11:23:57;;;;;;;0.90;0.50;;;21.40;74.70;;;;;;4938151;29;20032;-74
2022/06/21 11:27:01;;;;;;;1.85;0.50;;;21.50;75.50;;;;;;4932710;29;20070;-74
2022/06/21 11:29:42;;;;;;;3.33;0.60;;;21.60;75.20;;;;;;4940127;29;20050;-74
2022/06/21 11:32:34;;;;;;;2.42;0.30;;;21.70;73.90;;;;;;4948544;29;20122;-73
2022/06/21 11:35:13;;;;;;;3.63;1.25;;;21.70;76.20;;;;;;4948682;28;20074;-74
2022/06/21 11:37:57;;;;;;;3.45;1.02;;;21.70;73.90;;;;;;4948544;28;20031;-74
2022/06/21 11:40:29;;;;;;;5.43;0.90;;;21.70;74.00;;;;;;4945190;28;20038;-73
2022/06/21 11:42:57;;;;;;;3.50;0.50;;;21.70;74.50;;;;;;4950960;28;20027;-73
2022/06/21 11:45:52;;;;;;;3.20;0.70;;;21.70;76.50;;;;;;4936768;29;20023;-72
2022/06/21 11:49:00;;;;;;;4.30;1.55;;;22.00;74.90;;;;;;4951221;28;20034;-74
2022/06/21 11:51:40;;;;;;;1.70;0.40;;;22.10;74.80;;;;;;4952011;28;20074;-73
2022/06/21 11:54:32;;;;;;;1.55;0.68;;;22.00;74.80;;;;;;4971352;28;20049;-74
2022/06/21 11:57:21;;;;;;;4.07;0.43;;;21.90;75.20;;;;;;5008987;28;20029;-74
2022/06/21 11:59:57;;;;;;;2.95;1.13;;;21.70;75.00;;;;;;5008906;28;20133;-73
2022/06/21 12:02:38;;;;;;;2.47;0.70;;;22.40;75.10;;;;;;5008449;28;20029;-74
2022/06/21 12:05:38;;;;;;;1.15;0.40;;;21.90;73.50;;;;;;5006961;28;20050;-74
2022/06/21 12:08:26;;;;;;;1.38;0.50;;;21.80;71.90;;;;;;5007896;28;20037;-73
2022/06/21 12:11:08;;;;;;;4.72;0.50;;;21.70;74.00;;;;;;5008407;28;20030;-74
2022/06/21 12:14:12;;;;;;;2.15;0.70;;;23.10;75.20;;;;;;4997046;28;20080;-74
2022/06/21 12:17:02;;;;;;;2.63;0.60;;;22.00;72.40;;;;;;5009013;28;20025;-73
2022/06/21 12:19:41;;;;;;;3.45;0.50;;;23.00;74.50;;;;;;5008360;28;20049;-74
2022/06/21 12:22:22;;;;;;;1.17;0.45;;;22.00;74.20;;;;;;5008564;28;20022;-74
2022/06/21 12:24:49;;;;;;;3.70;0.68;;;22.20;72.20;;;;;;5008814;28;20033;-76
2022/06/21 12:27:16;;;;;;;1.08;0.57;;;22.40;73.10;;;;;;5008213;28;20026;-74
2022/06/21 12:29:42;;;;;;;4.18;0.70;;;22.30;72.30;;;;;;5008757;28;20029;-74
2022/06/21 12:32:18;;;;;;;2.20;0.68;;;22.40;71.80;;;;;;5007324;28;20458;-74
2022/06/21 12:34:55;;;;;;;1.20;0.50;;;22.60;72.70;;;;;;5007254;28;20483;-74
2022/06/21 12:37:35;;;;;;;1.23;0.47;;;22.80;72.30;;;;;;5008121;28;20478;-74
2022/06/21 12:40:26;;;;;;;1.88;0.40;;;22.80;72.30;;;;;;5007719;28;20502;-75
2022/06/21 12:43:22;;;;;;;2.85;0.50;;;23.00;70.40;;;;;;5007341;28;20034;-74
2022/06/21 12:46:15;;;;;;;4.20;0.57;;;23.20;70.80;;;;;;5008481;28;20044;-74
2022/06/21 12:49:06;;;;;;;1.37;0.43;;;23.40;69.30;;;;;;5007578;28;20602;-74
2022/06/21 12:51:47;;;;;;;4.10;0.60;;;23.60;69.90;;;;;;4997007;28;20293;-74
2022/06/21 12:54:40;;;;;;;2.92;0.73;;;23.60;67.10;;;;;;5011106;28;20034;-74
2022/06/21 12:57:33;;;;;;;1.15;0.55;;;23.70;65.30;;;;;;5012308;28;20172;-74
2022/06/21 13:00:28;;;;;;;4.05;0.40;;;23.40;65.30;;;;;;5012065;28;20160;-74
2022/06/21 13:03:21;;;;;;;2.63;0.40;;;23.40;65.40;;;;;;5011888;28;20036;-74
2022/06/21 13:06:11;;;;;;;2.13;0.52;;;23.40;65.90;;;;;;5011423;28;20411;-74
2022/06/21 13:09:14;;;;;;;1.85;0.38;;;23.40;67.20;;;;;;5011968;28;20102;-72
2022/06/21 13:11:42;;;;;;;4.20;0.40;;;23.20;65.20;;;;;;5011754;28;20046;-72
2022/06/21 13:14:30;;;;;;;3.08;0.40;;;23.30;67.30;;;;;;5011063;28;20503;-74
2022/06/21 13:17:32;;;;;;;1.38;0.40;;;23.30;65.00;;;;;;5011850;28;20177;-74
2022/06/21 13:20:29;;;;;;;2.03;0.40;;;23.20;64.60;;;;;;5011905;28;20096;-74
2022/06/21 13:23:19;;;;;;;2.42;0.40;;;23.20;64.70;;;;;;4999123;28;20076;-74
2022/06/21 13:26:00;;;;;;;3.40;0.77;;;23.30;65.40;;;;;;5011383;28;20041;-74
2022/06/21 13:28:51;;;;;;;1.33;0.57;;;23.40;67.80;;;;;;5011920;28;20025;-74
2022/06/21 13:31:19;;;;;;;3.00;0.70;;;23.50;64.50;;;;;;5011299;28;20030;-74
2022/06/21 13:33:54;;;;;;;2.35;0.65;;;23.40;63.70;;;;;;5010948;28;20045;-74
2022/06/21 13:36:32;;;;;;;1.52;0.45;;;23.60;64.50;;;;;;5011372;28;20101;-75
2022/06/21 13:39:24;;;;;;;1.33;0.47;;;22.70;64.00;;;;;;5011635;28;20502;-73
2022/06/21 13:44:48;;;;;;;5.47;0.60;;;24.20;65.60;;;;;;5007860;28;20085;-74
2022/06/21 13:47:35;;;;;;;1.50;0.40;;;24.50;66.20;;;;;;5004199;28;20023;-74
2022/06/21 13:50:15;;;;;;;1.10;0.30;;;23.80;62.90;;;;;;4996665;28;20363;-74
2022/06/21 13:53:07;;;;;;;2.42;0.30;;;24.00;63.50;;;;;;5009117;28;20030;-74
2022/06/21 13:55:45;;;;;;;1.23;0.38;;;24.70;65.10;;;;;;4997886;28;20072;-74
2022/06/21 13:58:23;;;;;;;2.75;0.65;;;24.10;63.10;;;;;;5010606;28;20034;-74
2022/06/21 14:01:02;;;;;;;0.70;0.40;;;24.20;61.60;;;;;;5010894;28;20042;-75